sensor_id;sensor_type;location;lat;lon;timestamp;pressure;altitude;pressure_sealevel;temperature;humidity
80568;BME280;69922;45.656;25.586;2023-06-26T00:00:28;95032.40;;;16.61;82.75
80568;BME280;69922;45.656;25.586;2023-06-26T00:01:55;95033.13;;;16.62;82.72
80568;BME280;69922;45.656;25.586;2023-06-26T00:03:00;95029.27;;;16.62;82.66
80568;BME280;69922;45.656;25.586;2023-06-26T00:04:07;95028.98;;;16.63;82.72
80568;BME280;69922;45.656;25.586;2023-06-26T00:05:14;95024.43;;;16.64;82.78
80568;BME280;69922;45.656;25.586;2023-06-26T00:06:20;95024.82;;;16.64;82.77
80568;BME280;69922;45.656;25.586;2023-06-26T00:07:26;95024.90;;;16.64;82.87
80568;BME280;69922;45.656;25.586;2023-06-26T00:08:33;95025.15;;;16.65;82.72
80568;BME280;69922;45.656;25.586;2023-06-26T00:09:39;95021.84;;;16.66;82.91
80568;BME280;69922;45.656;25.586;2023-06-26T00:10:47;95021.55;;;16.67;82.81
80568;BME280;69922;45.656;25.586;2023-06-26T00:11:57;95018.81;;;16.67;82.93
80568;BME280;69922;45.656;25.586;2023-06-26T00:13:03;95018.98;;;16.68;82.93
80568;BME280;69922;45.656;25.586;2023-06-26T00:14:10;95019.38;;;16.68;82.92
80568;BME280;69922;45.656;25.586;2023-06-26T00:15:16;95015.77;;;16.69;82.75
80568;BME280;69922;45.656;25.586;2023-06-26T00:16:22;95016.17;;;16.69;82.83
80568;BME280;69922;45.656;25.586;2023-06-26T00:17:29;95014.30;;;16.70;82.72
80568;BME280;69922;45.656;25.586;2023-06-26T00:18:35;95013.77;;;16.71;82.92
80568;BME280;69922;45.656;25.586;2023-06-26T00:19:41;95011.59;;;16.72;82.90
80568;BME280;69922;45.656;25.586;2023-06-26T00:20:49;95014.30;;;16.74;83.02
80568;BME280;69922;45.656;25.586;2023-06-26T00:21:55;95016.77;;;16.75;83.03
80568;BME280;69922;45.656;25.586;2023-06-26T00:23:00;95016.40;;;16.77;82.86
80568;BME280;69922;45.656;25.586;2023-06-26T00:24:07;95016.80;;;16.78;82.83
80568;BME280;69922;45.656;25.586;2023-06-26T00:25:14;95019.81;;;16.79;82.72
80568;BME280;69922;45.656;25.586;2023-06-26T00:26:20;95017.29;;;16.78;82.48
80568;BME280;69922;45.656;25.586;2023-06-26T00:27:26;95013.02;;;16.78;82.26
80568;BME280;69922;45.656;25.586;2023-06-26T00:28:32;95014.05;;;16.78;82.29
80568;BME280;69922;45.656;25.586;2023-06-26T00:29:38;95012.47;;;16.78;82.24
80568;BME280;69922;45.656;25.586;2023-06-26T00:30:44;95015.11;;;16.77;82.26
80568;BME280;69922;45.656;25.586;2023-06-26T00:31:50;95009.28;;;16.76;82.07
80568;BME280;69922;45.656;25.586;2023-06-26T00:32:56;95008.80;;;16.75;82.14
80568;BME280;69922;45.656;25.586;2023-06-26T00:34:03;95010.54;;;16.75;82.04
80568;BME280;69922;45.656;25.586;2023-06-26T00:35:09;95005.50;;;16.75;82.25
80568;BME280;69922;45.656;25.586;2023-06-26T00:36:15;95009.89;;;16.75;82.37
80568;BME280;69922;45.656;25.586;2023-06-26T00:37:21;95015.09;;;16.74;82.63
80568;BME280;69922;45.656;25.586;2023-06-26T00:38:28;95011.70;;;16.74;82.41
80568;BME280;69922;45.656;25.586;2023-06-26T00:39:34;95012.79;;;16.74;82.20
80568;BME280;69922;45.656;25.586;2023-06-26T00:40:41;95013.20;;;16.74;82.14
80568;BME280;69922;45.656;25.586;2023-06-26T00:41:48;95010.41;;;16.73;82.15
80568;BME280;69922;45.656;25.586;2023-06-26T00:42:54;95011.20;;;16.73;81.91
80568;BME280;69922;45.656;25.586;2023-06-26T00:44:00;95008.52;;;16.73;81.98
80568;BME280;69922;45.656;25.586;2023-06-26T00:45:08;95007.56;;;16.72;81.98
80568;BME280;69922;45.656;25.586;2023-06-26T00:46:15;95009.96;;;16.70;82.13
80568;BME280;69922;45.656;25.586;2023-06-26T00:47:21;95006.60;;;16.67;82.04
80568;BME280;69922;45.656;25.586;2023-06-26T00:48:29;95012.41;;;16.66;82.11
80568;BME280;69922;45.656;25.586;2023-06-26T00:49:35;95011.68;;;16.65;82.07
80568;BME280;69922;45.656;25.586;2023-06-26T00:50:43;95007.33;;;16.64;82.14
80568;BME280;69922;45.656;25.586;2023-06-26T00:51:49;95006.13;;;16.63;82.17
80568;BME280;69922;45.656;25.586;2023-06-26T00:52:56;95006.11;;;16.62;82.33
80568;BME280;69922;45.656;25.586;2023-06-26T00:54:08;95006.20;;;16.63;82.33
80568;BME280;69922;45.656;25.586;2023-06-26T00:55:14;95010.09;;;16.64;82.30
80568;BME280;69922;45.656;25.586;2023-06-26T00:56:20;95007.83;;;16.65;82.23
80568;BME280;69922;45.656;25.586;2023-06-26T00:57:27;95009.41;;;16.66;82.25
80568;BME280;69922;45.656;25.586;2023-06-26T00:58:33;95004.56;;;16.68;82.33
80568;BME280;69922;45.656;25.586;2023-06-26T00:59:40;95004.42;;;16.68;82.33
80568;BME280;69922;45.656;25.586;2023-06-26T01:00:46;95006.34;;;16.70;82.42
80568;BME280;69922;45.656;25.586;2023-06-26T01:01:52;95007.00;;;16.71;82.41
80568;BME280;69922;45.656;25.586;2023-06-26T01:02:58;95002.20;;;16.71;82.57
80568;BME280;69922;45.656;25.586;2023-06-26T01:04:06;95004.03;;;16.73;82.54
80568;BME280;69922;45.656;25.586;2023-06-26T01:05:12;95005.71;;;16.74;82.66
80568;BME280;69922;45.656;25.586;2023-06-26T01:06:29;95003.61;;;16.75;82.55
80568;BME280;69922;45.656;25.586;2023-06-26T01:07:37;95005.77;;;16.77;82.32
80568;BME280;69922;45.656;25.586;2023-06-26T01:08:46;95004.21;;;16.78;82.05
80568;BME280;69922;45.656;25.586;2023-06-26T01:09:53;95001.30;;;16.79;81.39
80568;BME280;69922;45.656;25.586;2023-06-26T01:11:00;95003.67;;;16.80;81.52
80568;BME280;69922;45.656;25.586;2023-06-26T01:12:07;95001.59;;;16.81;81.32
80568;BME280;69922;45.656;25.586;2023-06-26T01:13:14;94998.83;;;16.81;81.06
80568;BME280;69922;45.656;25.586;2023-06-26T01:14:22;95000.73;;;16.82;80.95
80568;BME280;69922;45.656;25.586;2023-06-26T01:15:28;94995.91;;;16.81;80.81
80568;BME280;69922;45.656;25.586;2023-06-26T01:16:37;94995.29;;;16.81;80.79
80568;BME280;69922;45.656;25.586;2023-06-26T01:17:45;94995.44;;;16.81;80.68
80568;BME280;69922;45.656;25.586;2023-06-26T01:18:52;94992.42;;;16.80;80.85
80568;BME280;69922;45.656;25.586;2023-06-26T01:20:03;94994.20;;;16.78;80.80
80568;BME280;69922;45.656;25.586;2023-06-26T01:21:15;94992.38;;;16.77;80.70
80568;BME280;69922;45.656;25.586;2023-06-26T01:22:27;94994.65;;;16.76;80.46
80568;BME280;69922;45.656;25.586;2023-06-26T01:23:44;94993.17;;;16.74;80.47
80568;BME280;69922;45.656;25.586;2023-06-26T01:25:03;94993.52;;;16.71;80.11
80568;BME280;69922;45.656;25.586;2023-06-26T01:26:21;94991.17;;;16.68;80.32
80568;BME280;69922;45.656;25.586;2023-06-26T01:27:27;94990.64;;;16.65;80.22
80568;BME280;69922;45.656;25.586;2023-06-26T01:28:41;94990.10;;;16.62;80.24
80568;BME280;69922;45.656;25.586;2023-06-26T01:29:48;94990.17;;;16.61;80.58
80568;BME280;69922;45.656;25.586;2023-06-26T01:30:56;94989.31;;;16.60;80.73
80568;BME280;69922;45.656;25.586;2023-06-26T01:32:02;94985.67;;;16.60;80.72
80568;BME280;69922;45.656;25.586;2023-06-26T01:33:09;94986.54;;;16.60;80.87
80568;BME280;69922;45.656;25.586;2023-06-26T01:34:18;94987.15;;;16.59;80.86
80568;BME280;69922;45.656;25.586;2023-06-26T01:35:26;94982.77;;;16.57;81.14
80568;BME280;69922;45.656;25.586;2023-06-26T01:36:33;94985.20;;;16.55;81.25
80568;BME280;69922;45.656;25.586;2023-06-26T01:37:39;94983.80;;;16.52;81.26
80568;BME280;69922;45.656;25.586;2023-06-26T01:38:45;94986.98;;;16.50;81.58
80568;BME280;69922;45.656;25.586;2023-06-26T01:39:52;94985.75;;;16.48;81.32
80568;BME280;69922;45.656;25.586;2023-06-26T01:41:00;94988.52;;;16.45;81.47
80568;BME280;69922;45.656;25.586;2023-06-26T01:42:08;94988.09;;;16.43;81.67
80568;BME280;69922;45.656;25.586;2023-06-26T01:43:25;94985.91;;;16.41;81.57
80568;BME280;69922;45.656;25.586;2023-06-26T01:44:38;94984.23;;;16.40;81.66
80568;BME280;69922;45.656;25.586;2023-06-26T01:45:47;94984.45;;;16.39;82.03
80568;BME280;69922;45.656;25.586;2023-06-26T01:47:03;94981.74;;;16.37;81.92
80568;BME280;69922;45.656;25.586;2023-06-26T01:48:13;94983.74;;;16.35;82.06
80568;BME280;69922;45.656;25.586;2023-06-26T01:49:31;94982.55;;;16.35;82.52
80568;BME280;69922;45.656;25.586;2023-06-26T01:50:41;94987.90;;;16.34;82.18
80568;BME280;69922;45.656;25.586;2023-06-26T01:51:51;94988.67;;;16.33;82.36
80568;BME280;69922;45.656;25.586;2023-06-26T01:53:04;94983.06;;;16.32;82.57
80568;BME280;69922;45.656;25.586;2023-06-26T01:54:18;94983.05;;;16.31;82.37
80568;BME280;69922;45.656;25.586;2023-06-26T01:55:37;94982.38;;;16.29;82.29
80568;BME280;69922;45.656;25.586;2023-06-26T01:56:49;94986.98;;;16.28;82.53
80568;BME280;69922;45.656;25.586;2023-06-26T01:57:58;94984.23;;;16.24;82.39
80568;BME280;69922;45.656;25.586;2023-06-26T01:59:07;94985.02;;;16.19;82.39
80568;BME280;69922;45.656;25.586;2023-06-26T02:00:17;94983.38;;;16.16;82.63
80568;BME280;69922;45.656;25.586;2023-06-26T02:01:25;94982.55;;;16.15;82.92
80568;BME280;69922;45.656;25.586;2023-06-26T02:02:31;94978.11;;;16.14;82.85
80568;BME280;69922;45.656;25.586;2023-06-26T02:03:37;94983.16;;;16.13;82.82
80568;BME280;69922;45.656;25.586;2023-06-26T02:04:43;94982.59;;;16.13;82.82
80568;BME280;69922;45.656;25.586;2023-06-26T02:05:50;94979.59;;;16.13;83.19
80568;BME280;69922;45.656;25.586;2023-06-26T02:06:58;94978.68;;;16.14;83.15
80568;BME280;69922;45.656;25.586;2023-06-26T02:08:05;94979.95;;;16.14;83.22
80568;BME280;69922;45.656;25.586;2023-06-26T02:09:12;94980.05;;;16.15;83.24
80568;BME280;69922;45.656;25.586;2023-06-26T02:10:18;94979.21;;;16.17;83.36
80568;BME280;69922;45.656;25.586;2023-06-26T02:11:25;94980.20;;;16.19;83.78
80568;BME280;69922;45.656;25.586;2023-06-26T02:12:31;94975.38;;;16.21;83.46
80568;BME280;69922;45.656;25.586;2023-06-26T02:13:37;94975.30;;;16.21;83.32
80568;BME280;69922;45.656;25.586;2023-06-26T02:14:43;94975.60;;;16.21;83.19
80568;BME280;69922;45.656;25.586;2023-06-26T02:15:50;94975.83;;;16.21;83.19
80568;BME280;69922;45.656;25.586;2023-06-26T02:16:56;94974.10;;;16.21;83.11
80568;BME280;69922;45.656;25.586;2023-06-26T02:18:03;94972.85;;;16.21;83.25
80568;BME280;69922;45.656;25.586;2023-06-26T02:19:09;94973.41;;;16.22;83.60
80568;BME280;69922;45.656;25.586;2023-06-26T02:20:16;94970.20;;;16.23;83.73
80568;BME280;69922;45.656;25.586;2023-06-26T02:21:22;94972.58;;;16.24;83.66
80568;BME280;69922;45.656;25.586;2023-06-26T02:22:29;94972.05;;;16.24;83.68
80568;BME280;69922;45.656;25.586;2023-06-26T02:23:36;94971.12;;;16.25;83.71
80568;BME280;69922;45.656;25.586;2023-06-26T02:24:43;94972.40;;;16.27;83.59
80568;BME280;69922;45.656;25.586;2023-06-26T02:25:50;94974.52;;;16.27;83.56
80568;BME280;69922;45.656;25.586;2023-06-26T02:26:56;94970.60;;;16.27;83.63
80568;BME280;69922;45.656;25.586;2023-06-26T02:28:05;94970.77;;;16.27;83.69
80568;BME280;69922;45.656;25.586;2023-06-26T02:29:11;94970.54;;;16.28;83.70
80568;BME280;69922;45.656;25.586;2023-06-26T02:30:18;94970.95;;;16.29;83.74
80568;BME280;69922;45.656;25.586;2023-06-26T02:31:24;94969.91;;;16.28;83.90
80568;BME280;69922;45.656;25.586;2023-06-26T02:32:32;94972.84;;;16.29;83.92
80568;BME280;69922;45.656;25.586;2023-06-26T02:33:38;94971.59;;;16.29;83.80
80568;BME280;69922;45.656;25.586;2023-06-26T02:34:45;94971.90;;;16.29;83.83
80568;BME280;69922;45.656;25.586;2023-06-26T02:35:53;94968.61;;;16.30;83.69
80568;BME280;69922;45.656;25.586;2023-06-26T02:36:59;94966.23;;;16.30;83.74
80568;BME280;69922;45.656;25.586;2023-06-26T02:38:07;94971.25;;;16.31;83.64
80568;BME280;69922;45.656;25.586;2023-06-26T02:39:14;94969.52;;;16.32;83.67
80568;BME280;69922;45.656;25.586;2023-06-26T02:40:21;94967.41;;;16.33;83.78
80568;BME280;69922;45.656;25.586;2023-06-26T02:41:28;94965.77;;;16.33;83.46
80568;BME280;69922;45.656;25.586;2023-06-26T02:42:34;94961.53;;;16.34;83.14
80568;BME280;69922;45.656;25.586;2023-06-26T02:43:41;94965.17;;;16.35;83.05
80568;BME280;69922;45.656;25.586;2023-06-26T02:44:47;94965.73;;;16.36;83.11
80568;BME280;69922;45.656;25.586;2023-06-26T02:45:54;94965.02;;;16.36;82.65
80568;BME280;69922;45.656;25.586;2023-06-26T02:47:01;94963.52;;;16.35;82.65
80568;BME280;69922;45.656;25.586;2023-06-26T02:48:07;94963.39;;;16.37;82.67
80568;BME280;69922;45.656;25.586;2023-06-26T02:49:13;94967.96;;;16.37;82.47
80568;BME280;69922;45.656;25.586;2023-06-26T02:50:19;94965.27;;;16.37;82.32
80568;BME280;69922;45.656;25.586;2023-06-26T02:51:25;94963.88;;;16.37;82.34
80568;BME280;69922;45.656;25.586;2023-06-26T02:52:31;94965.63;;;16.39;82.42
80568;BME280;69922;45.656;25.586;2023-06-26T02:53:38;94964.26;;;16.41;82.58
80568;BME280;69922;45.656;25.586;2023-06-26T02:54:44;94965.86;;;16.42;82.74
80568;BME280;69922;45.656;25.586;2023-06-26T02:55:50;94964.65;;;16.44;82.76
80568;BME280;69922;45.656;25.586;2023-06-26T02:56:57;94965.80;;;16.47;82.62
80568;BME280;69922;45.656;25.586;2023-06-26T02:58:03;94962.69;;;16.48;82.76
80568;BME280;69922;45.656;25.586;2023-06-26T02:59:11;94965.67;;;16.51;82.80
80568;BME280;69922;45.656;25.586;2023-06-26T03:00:19;94965.70;;;16.54;82.78
80568;BME280;69922;45.656;25.586;2023-06-26T03:01:26;94967.58;;;16.57;82.98
80568;BME280;69922;45.656;25.586;2023-06-26T03:02:32;94968.64;;;16.59;82.88
80568;BME280;69922;45.656;25.586;2023-06-26T03:03:38;94964.90;;;16.61;82.81
80568;BME280;69922;45.656;25.586;2023-06-26T03:04:47;94968.96;;;16.63;82.84
80568;BME280;69922;45.656;25.586;2023-06-26T03:05:53;94966.95;;;16.65;82.79
80568;BME280;69922;45.656;25.586;2023-06-26T03:06:59;94970.21;;;16.68;82.62
80568;BME280;69922;45.656;25.586;2023-06-26T03:08:06;94967.91;;;16.71;82.72
80568;BME280;69922;45.656;25.586;2023-06-26T03:09:12;94970.80;;;16.74;82.72
80568;BME280;69922;45.656;25.586;2023-06-26T03:10:18;94967.38;;;16.76;82.55
80568;BME280;69922;45.656;25.586;2023-06-26T03:11:25;94968.77;;;16.80;82.38
80568;BME280;69922;45.656;25.586;2023-06-26T03:12:31;94970.02;;;16.82;82.20
80568;BME280;69922;45.656;25.586;2023-06-26T03:13:39;94973.60;;;16.85;82.27
80568;BME280;69922;45.656;25.586;2023-06-26T03:14:46;94971.34;;;16.87;82.36
80568;BME280;69922;45.656;25.586;2023-06-26T03:15:52;94974.07;;;16.89;82.02
80568;BME280;69922;45.656;25.586;2023-06-26T03:16:58;94975.60;;;16.91;81.99
80568;BME280;69922;45.656;25.586;2023-06-26T03:18:09;94976.88;;;16.92;81.40
80568;BME280;69922;45.656;25.586;2023-06-26T03:19:16;94972.48;;;16.93;81.28
80568;BME280;69922;45.656;25.586;2023-06-26T03:20:22;94976.46;;;16.95;81.29
80568;BME280;69922;45.656;25.586;2023-06-26T03:21:29;94973.98;;;16.97;81.27
80568;BME280;69922;45.656;25.586;2023-06-26T03:22:35;94974.98;;;17.00;81.20
80568;BME280;69922;45.656;25.586;2023-06-26T03:23:42;94971.71;;;17.03;81.15
80568;BME280;69922;45.656;25.586;2023-06-26T03:24:48;94974.52;;;17.06;81.19
80568;BME280;69922;45.656;25.586;2023-06-26T03:25:54;94971.96;;;17.09;81.30
80568;BME280;69922;45.656;25.586;2023-06-26T03:27:00;94974.31;;;17.12;81.59
80568;BME280;69922;45.656;25.586;2023-06-26T03:28:06;94977.58;;;17.14;81.57
80568;BME280;69922;45.656;25.586;2023-06-26T03:29:12;94976.65;;;17.16;81.63
80568;BME280;69922;45.656;25.586;2023-06-26T03:30:19;94978.12;;;17.19;81.49
80568;BME280;69922;45.656;25.586;2023-06-26T03:31:25;94982.09;;;17.20;81.12
80568;BME280;69922;45.656;25.586;2023-06-26T03:32:31;94981.23;;;17.20;80.81
80568;BME280;69922;45.656;25.586;2023-06-26T03:33:40;94984.93;;;17.20;80.50
80568;BME280;69922;45.656;25.586;2023-06-26T03:34:45;94985.24;;;17.20;80.49
80568;BME280;69922;45.656;25.586;2023-06-26T03:35:52;94978.20;;;17.19;80.34
80568;BME280;69922;45.656;25.586;2023-06-26T03:36:57;94980.63;;;17.18;80.32
80568;BME280;69922;45.656;25.586;2023-06-26T03:38:04;94981.39;;;17.17;80.07
80568;BME280;69922;45.656;25.586;2023-06-26T03:39:11;94984.39;;;17.16;80.31
80568;BME280;69922;45.656;25.586;2023-06-26T03:40:17;94982.30;;;17.18;80.09
80568;BME280;69922;45.656;25.586;2023-06-26T03:41:24;94978.90;;;17.19;80.02
80568;BME280;69922;45.656;25.586;2023-06-26T03:42:31;94980.38;;;17.17;79.51
80568;BME280;69922;45.656;25.586;2023-06-26T03:43:39;94980.31;;;17.13;79.61
80568;BME280;69922;45.656;25.586;2023-06-26T03:44:45;94976.95;;;17.09;79.53
80568;BME280;69922;45.656;25.586;2023-06-26T03:45:51;94983.11;;;17.06;79.51
80568;BME280;69922;45.656;25.586;2023-06-26T03:46:58;94985.44;;;17.03;79.82
80568;BME280;69922;45.656;25.586;2023-06-26T03:48:05;94982.95;;;17.02;79.91
80568;BME280;69922;45.656;25.586;2023-06-26T03:49:12;94984.22;;;17.01;79.96
80568;BME280;69922;45.656;25.586;2023-06-26T03:50:19;94982.80;;;17.02;80.03
80568;BME280;69922;45.656;25.586;2023-06-26T03:51:25;94984.19;;;17.04;80.12
80568;BME280;69922;45.656;25.586;2023-06-26T03:52:31;94983.10;;;17.05;80.03
80568;BME280;69922;45.656;25.586;2023-06-26T03:53:38;94984.04;;;17.05;79.90
80568;BME280;69922;45.656;25.586;2023-06-26T03:54:44;94981.50;;;17.04;79.84
80568;BME280;69922;45.656;25.586;2023-06-26T03:55:50;94985.66;;;17.03;79.73
80568;BME280;69922;45.656;25.586;2023-06-26T03:56:56;94984.61;;;17.01;79.75
80568;BME280;69922;45.656;25.586;2023-06-26T03:58:02;94984.05;;;17.01;79.92
80568;BME280;69922;45.656;25.586;2023-06-26T03:59:09;94984.92;;;17.02;79.99
80568;BME280;69922;45.656;25.586;2023-06-26T04:00:18;94984.55;;;17.03;79.99
80568;BME280;69922;45.656;25.586;2023-06-26T04:01:25;94980.87;;;17.05;80.43
80568;BME280;69922;45.656;25.586;2023-06-26T04:02:31;94982.98;;;17.07;80.50
80568;BME280;69922;45.656;25.586;2023-06-26T04:03:38;94984.21;;;17.10;80.39
80568;BME280;69922;45.656;25.586;2023-06-26T04:04:44;94985.60;;;17.13;80.29
80568;BME280;69922;45.656;25.586;2023-06-26T04:05:51;94990.70;;;17.17;80.39
80568;BME280;69922;45.656;25.586;2023-06-26T04:06:57;94989.80;;;17.20;80.38
80568;BME280;69922;45.656;25.586;2023-06-26T04:08:07;94991.11;;;17.23;80.37
80568;BME280;69922;45.656;25.586;2023-06-26T04:09:13;94993.91;;;17.26;80.29
80568;BME280;69922;45.656;25.586;2023-06-26T04:10:19;94990.47;;;17.26;80.13
80568;BME280;69922;45.656;25.586;2023-06-26T04:11:27;94988.65;;;17.27;80.25
80568;BME280;69922;45.656;25.586;2023-06-26T04:12:34;94990.23;;;17.31;80.37
80568;BME280;69922;45.656;25.586;2023-06-26T04:13:40;94988.55;;;17.34;80.43
80568;BME280;69922;45.656;25.586;2023-06-26T04:14:46;94987.97;;;17.38;80.06
80568;BME280;69922;45.656;25.586;2023-06-26T04:15:52;94984.64;;;17.41;80.08
80568;BME280;69922;45.656;25.586;2023-06-26T04:17:00;94984.73;;;17.46;79.95
80568;BME280;69922;45.656;25.586;2023-06-26T04:18:10;94986.23;;;17.50;79.90
80568;BME280;69922;45.656;25.586;2023-06-26T04:19:16;94986.75;;;17.53;79.54
80568;BME280;69922;45.656;25.586;2023-06-26T04:20:22;94987.20;;;17.57;79.54
80568;BME280;69922;45.656;25.586;2023-06-26T04:21:30;94987.89;;;17.61;79.58
80568;BME280;69922;45.656;25.586;2023-06-26T04:22:37;94988.41;;;17.65;79.39
80568;BME280;69922;45.656;25.586;2023-06-26T04:23:44;94988.73;;;17.70;79.46
80568;BME280;69922;45.656;25.586;2023-06-26T04:24:51;94986.24;;;17.72;79.20
80568;BME280;69922;45.656;25.586;2023-06-26T04:25:58;94985.80;;;17.74;79.27
80568;BME280;69922;45.656;25.586;2023-06-26T04:27:06;94982.66;;;17.76;79.06
80568;BME280;69922;45.656;25.586;2023-06-26T04:28:12;94986.45;;;17.76;78.70
80568;BME280;69922;45.656;25.586;2023-06-26T04:29:19;94984.96;;;17.77;78.55
80568;BME280;69922;45.656;25.586;2023-06-26T04:30:25;94983.91;;;17.80;78.49
80568;BME280;69922;45.656;25.586;2023-06-26T04:31:32;94985.97;;;17.80;78.54
80568;BME280;69922;45.656;25.586;2023-06-26T04:32:38;94985.42;;;17.81;78.49
80568;BME280;69922;45.656;25.586;2023-06-26T04:33:45;94984.13;;;17.84;78.44
80568;BME280;69922;45.656;25.586;2023-06-26T04:34:56;94985.81;;;17.87;78.15
80568;BME280;69922;45.656;25.586;2023-06-26T04:36:03;94983.72;;;17.88;77.97
80568;BME280;69922;45.656;25.586;2023-06-26T04:37:10;94983.27;;;17.91;77.90
80568;BME280;69922;45.656;25.586;2023-06-26T04:38:17;94985.91;;;17.94;77.91
80568;BME280;69922;45.656;25.586;2023-06-26T04:39:24;94987.27;;;17.97;77.75
80568;BME280;69922;45.656;25.586;2023-06-26T04:40:31;94985.27;;;17.98;77.68
80568;BME280;69922;45.656;25.586;2023-06-26T04:41:37;94985.60;;;18.00;77.77
80568;BME280;69922;45.656;25.586;2023-06-26T04:42:43;94982.86;;;18.02;77.71
80568;BME280;69922;45.656;25.586;2023-06-26T04:43:49;94986.84;;;18.04;77.68
80568;BME280;69922;45.656;25.586;2023-06-26T04:44:55;94985.48;;;18.03;77.28
80568;BME280;69922;45.656;25.586;2023-06-26T04:46:01;94988.54;;;18.01;77.21
80568;BME280;69922;45.656;25.586;2023-06-26T04:47:09;94986.38;;;17.99;77.15
80568;BME280;69922;45.656;25.586;2023-06-26T04:48:15;94987.62;;;17.98;77.13
80568;BME280;69922;45.656;25.586;2023-06-26T04:49:22;94987.51;;;17.95;77.14
80568;BME280;69922;45.656;25.586;2023-06-26T04:50:28;94990.33;;;17.93;77.13
80568;BME280;69922;45.656;25.586;2023-06-26T04:51:35;94991.34;;;17.93;77.25
80568;BME280;69922;45.656;25.586;2023-06-26T04:52:47;94990.50;;;17.95;77.16
80568;BME280;69922;45.656;25.586;2023-06-26T04:53:53;94992.11;;;17.97;77.04
80568;BME280;69922;45.656;25.586;2023-06-26T04:54:59;94993.30;;;17.98;77.03
80568;BME280;69922;45.656;25.586;2023-06-26T04:56:05;94995.53;;;17.98;77.15
80568;BME280;69922;45.656;25.586;2023-06-26T04:57:12;94997.20;;;18.01;77.11
80568;BME280;69922;45.656;25.586;2023-06-26T04:58:19;94992.82;;;18.03;76.91
80568;BME280;69922;45.656;25.586;2023-06-26T04:59:25;94996.95;;;18.05;76.96
80568;BME280;69922;45.656;25.586;2023-06-26T05:00:31;94994.58;;;18.05;77.10
80568;BME280;69922;45.656;25.586;2023-06-26T05:01:38;94995.26;;;18.09;77.22
80568;BME280;69922;45.656;25.586;2023-06-26T05:02:46;94994.52;;;18.11;77.15
80568;BME280;69922;45.656;25.586;2023-06-26T05:03:52;94990.48;;;18.18;76.92
80568;BME280;69922;45.656;25.586;2023-06-26T05:04:58;94990.05;;;18.26;76.83
80568;BME280;69922;45.656;25.586;2023-06-26T05:06:04;94992.56;;;18.38;76.68
80568;BME280;69922;45.656;25.586;2023-06-26T05:07:16;94993.58;;;18.48;76.22
80568;BME280;69922;45.656;25.586;2023-06-26T05:08:24;94995.31;;;18.55;75.85
80568;BME280;69922;45.656;25.586;2023-06-26T05:09:33;94997.27;;;18.60;75.62
80568;BME280;69922;45.656;25.586;2023-06-26T05:10:39;94996.25;;;18.67;75.34
80568;BME280;69922;45.656;25.586;2023-06-26T05:11:46;94995.31;;;18.76;75.24
80568;BME280;69922;45.656;25.586;2023-06-26T05:12:52;94992.02;;;18.85;74.85
80568;BME280;69922;45.656;25.586;2023-06-26T05:13:58;94993.73;;;18.92;74.78
80568;BME280;69922;45.656;25.586;2023-06-26T05:15:07;94995.39;;;18.99;74.91
80568;BME280;69922;45.656;25.586;2023-06-26T05:16:13;94997.41;;;19.04;74.41
80568;BME280;69922;45.656;25.586;2023-06-26T05:17:20;94999.30;;;19.09;74.10
80568;BME280;69922;45.656;25.586;2023-06-26T05:18:26;94996.02;;;19.15;73.60
80568;BME280;69922;45.656;25.586;2023-06-26T05:19:32;94996.02;;;19.23;73.49
80568;BME280;69922;45.656;25.586;2023-06-26T05:20:42;94995.82;;;19.33;73.20
80568;BME280;69922;45.656;25.586;2023-06-26T05:21:49;95000.34;;;19.44;72.89
80568;BME280;69922;45.656;25.586;2023-06-26T05:22:56;95000.64;;;19.54;72.54
80568;BME280;69922;45.656;25.586;2023-06-26T05:24:05;95001.04;;;19.63;72.46
80568;BME280;69922;45.656;25.586;2023-06-26T05:25:13;95001.11;;;19.73;72.22
80568;BME280;69922;45.656;25.586;2023-06-26T05:26:21;95003.16;;;19.84;71.51
80568;BME280;69922;45.656;25.586;2023-06-26T05:27:29;95003.54;;;19.93;71.52
80568;BME280;69922;45.656;25.586;2023-06-26T05:28:38;95004.61;;;20.02;71.03
80568;BME280;69922;45.656;25.586;2023-06-26T05:29:45;95003.95;;;20.09;70.80
80568;BME280;69922;45.656;25.586;2023-06-26T05:30:54;95007.53;;;20.12;69.82
80568;BME280;69922;45.656;25.586;2023-06-26T05:32:03;95004.77;;;20.12;69.53
80568;BME280;69922;45.656;25.586;2023-06-26T05:33:11;95003.16;;;20.10;69.72
80568;BME280;69922;45.656;25.586;2023-06-26T05:34:21;95004.42;;;20.09;69.76
80568;BME280;69922;45.656;25.586;2023-06-26T05:35:33;95004.83;;;20.07;69.99
80568;BME280;69922;45.656;25.586;2023-06-26T05:36:42;95005.86;;;20.10;70.40
80568;BME280;69922;45.656;25.586;2023-06-26T05:37:50;95005.62;;;20.18;70.33
80568;BME280;69922;45.656;25.586;2023-06-26T05:38:59;95004.72;;;20.27;69.87
80568;BME280;69922;45.656;25.586;2023-06-26T05:40:08;95000.95;;;20.37;69.20
80568;BME280;69922;45.656;25.586;2023-06-26T05:41:16;94998.52;;;20.44;68.90
80568;BME280;69922;45.656;25.586;2023-06-26T05:42:26;95002.67;;;20.49;68.35
80568;BME280;69922;45.656;25.586;2023-06-26T05:43:32;95002.45;;;20.52;68.18
80568;BME280;69922;45.656;25.586;2023-06-26T05:44:38;95002.78;;;20.54;67.80
80568;BME280;69922;45.656;25.586;2023-06-26T05:45:44;95003.11;;;20.56;68.32
80568;BME280;69922;45.656;25.586;2023-06-26T05:46:50;94998.77;;;20.63;67.81
80568;BME280;69922;45.656;25.586;2023-06-26T05:47:56;95000.77;;;20.71;65.95
80568;BME280;69922;45.656;25.586;2023-06-26T05:49:03;94998.81;;;20.77;66.10
80568;BME280;69922;45.656;25.586;2023-06-26T05:50:13;94999.92;;;20.75;65.97
80568;BME280;69922;45.656;25.586;2023-06-26T05:51:21;94997.92;;;20.70;66.24
80568;BME280;69922;45.656;25.586;2023-06-26T05:52:29;95000.27;;;20.64;65.24